Darstellungsparameter: Aktuell verwendete Einstellungen:
Skalierung der Graphiken ... ?
xyx+y,   Skalierungsfaktor:      Skalierung: Modus: x, Faktor: 1
Darstellungszeitraum ... ?
Vom - - bis: - -   Zeitraum: 23.07.2022 - 23.07.2022
Min/Max/Avg-Anzeige ... ?
Zeige MMA aktuell
Zeige MMA Monat
Zeige MMA alles
Zeige --A aktuell
Zeige --A Monat
Zeige --A alles
Keine MMA-Anzeige
MMA:
Average (ber die Originaldaten)
MMA-Basis: 23.07.2022 - 23.07.2022
Quicknavigation für Darstellung... ?
Tage:      1T, 2T, 3T, 5T -1T -2T -3T -5T +1T +2T +3T +5T
Wochen: 1W, 2W, 3W -1W -2W -3W +1W +2W +3W
Monate: 1M, 3M, 6M -1M -3M -6M +1M +3M +6M
Jahre:    1J, 3J, 5J, 10J -1J -3J -5J -10J +1J +3J +5J +10J
Nutze für die Darstellung ... ?
Originaldaten oder Mittelwerte auf ...
Stundenbasis Tagesbasis Wochenbasis
Monatsbasis Jahresbasis      Datenbasis: Original-Daten
Darstellen als:
Statistik (Auto) Statistik J:M      Darstellung:
Zur Graphik,    zurück zur Übersicht aller Sensoren.
 
Tabellarische Datenbersicht: ?
 
Sensor: Nr:Datum:Temp:Abs-Feuchte:Windchill:Wind:
Aussen-T/F 1 23-07-2022 00:00:00 19.7 C 13.58 g/m*3 19.7 C 0 km/h
2 23-07-2022 00:05:00 19.6 C 13.67 g/m*3 19.6 C 0 km/h
3 23-07-2022 00:10:00 19.5 C 13.59 g/m*3 19.5 C 0 km/h
4 23-07-2022 00:15:00 19.5 C 13.76 g/m*3 19.5 C 0 km/h
5 23-07-2022 00:20:00 19.4 C 13.68 g/m*3 19.4 C 0 km/h
6 23-07-2022 00:25:00 19.4 C 13.68 g/m*3 19.4 C 0 km/h
7 23-07-2022 00:30:00 19.3 C 13.6 g/m*3 19.3 C 0 km/h
8 23-07-2022 00:35:00 19.3 C 13.6 g/m*3 19.3 C 0 km/h
9 23-07-2022 00:40:00 19.3 C 13.6 g/m*3 19.3 C 0 km/h
10 23-07-2022 00:45:00 19.3 C 13.77 g/m*3 19.3 C 4.8 km/h
11 23-07-2022 00:50:00 19.3 C 13.6 g/m*3 19.3 C 4.8 km/h
12 23-07-2022 00:55:00 19.3 C 13.6 g/m*3 19.3 C 0 km/h
13 23-07-2022 01:00:00 19.3 C 13.6 g/m*3 19.3 C 0 km/h
14 23-07-2022 01:05:00 19.3 C 13.6 g/m*3 19.3 C 0 km/h
15 23-07-2022 01:10:00 19.3 C 13.6 g/m*3 19.3 C 0 km/h
16 23-07-2022 01:15:00 19.2 C 13.52 g/m*3 19.2 C 0 km/h
17 23-07-2022 01:20:00 19.2 C 13.52 g/m*3 19.2 C 0 km/h
18 23-07-2022 01:25:00 19.1 C 13.44 g/m*3 19.1 C 0 km/h
19 23-07-2022 01:30:00 19 C 13.53 g/m*3 19 C 0 km/h
20 23-07-2022 01:35:00 18.9 C 13.45 g/m*3 18.9 C 0 km/h
21 23-07-2022 01:40:00 18.9 C 13.61 g/m*3 18.9 C 0 km/h
22 23-07-2022 01:45:00 18.8 C 13.53 g/m*3 18.8 C 0 km/h
23 23-07-2022 01:50:00 18.8 C 13.37 g/m*3 18.8 C 3.2 km/h
24 23-07-2022 01:55:00 18.8 C 13.37 g/m*3 18.8 C 0 km/h
25 23-07-2022 02:00:00 18.8 C 13.37 g/m*3 18.8 C 1.6 km/h
Sensor: Nr:Datum:Temp:Abs-Feuchte:Windchill:Wind:
Aussen-T/F 26 23-07-2022 02:05:00 18.8 C 13.37 g/m*3 18.8 C 1.6 km/h
27 23-07-2022 02:10:00 18.8 C 13.37 g/m*3 18.8 C 4.8 km/h
28 23-07-2022 02:15:00 18.9 C 13.45 g/m*3 18.9 C 3.2 km/h
29 23-07-2022 02:20:00 18.9 C 13.45 g/m*3 18.9 C 4.8 km/h
30 23-07-2022 02:25:00 18.9 C 13.28 g/m*3 18.9 C 1.6 km/h
31 23-07-2022 02:30:00 18.9 C 13.28 g/m*3 18.9 C 6.4 km/h
32 23-07-2022 02:35:00 19 C 13.36 g/m*3 19 C 8.1 km/h
33 23-07-2022 02:40:00 19 C 13.36 g/m*3 19 C 14.5 km/h
34 23-07-2022 02:45:00 19 C 13.36 g/m*3 19 C 8.1 km/h
35 23-07-2022 02:50:00 19.1 C 13.28 g/m*3 19.1 C 6.4 km/h
36 23-07-2022 02:55:00 19.1 C 13.28 g/m*3 19.1 C 4.8 km/h
37 23-07-2022 03:00:00 19.1 C 13.28 g/m*3 19.1 C 3.2 km/h
38 23-07-2022 03:05:00 19.1 C 13.28 g/m*3 19.1 C 3.2 km/h
39 23-07-2022 03:10:00 19 C 13.2 g/m*3 19 C 0 km/h
40 23-07-2022 03:15:00 19 C 13.2 g/m*3 19 C 0 km/h
41 23-07-2022 03:20:00 18.9 C 13.28 g/m*3 18.9 C 0 km/h
42 23-07-2022 03:25:00 18.9 C 13.28 g/m*3 18.9 C 1.6 km/h
43 23-07-2022 03:30:00 18.8 C 13.21 g/m*3 18.8 C 0 km/h
44 23-07-2022 03:35:00 18.8 C 13.21 g/m*3 18.8 C 3.2 km/h
45 23-07-2022 03:40:00 18.7 C 13.13 g/m*3 18.7 C 3.2 km/h
46 23-07-2022 03:45:00 18.7 C 13.13 g/m*3 18.7 C 0 km/h
47 23-07-2022 03:50:00 18.6 C 13.05 g/m*3 18.6 C 3.2 km/h
48 23-07-2022 03:55:00 18.6 C 13.05 g/m*3 18.6 C 0 km/h
49 23-07-2022 04:00:00 18.6 C 13.05 g/m*3 18.6 C 0 km/h
50 23-07-2022 04:05:00 18.6 C 13.21 g/m*3 18.6 C 0 km/h
Sensor: Nr:Datum:Temp:Abs-Feuchte:Windchill:Wind:
Aussen-T/F 51 23-07-2022 04:10:00 18.5 C 13.13 g/m*3 18.5 C 0 km/h
52 23-07-2022 04:15:00 18.4 C 13.05 g/m*3 18.4 C 4.8 km/h
53 23-07-2022 04:20:00 18.4 C 13.05 g/m*3 18.4 C 4.8 km/h
54 23-07-2022 04:25:00 18.4 C 13.05 g/m*3 18.4 C 4.8 km/h
55 23-07-2022 04:30:00 18.4 C 13.05 g/m*3 18.4 C 4.8 km/h
56 23-07-2022 04:35:00 18.3 C 12.98 g/m*3 18.3 C 0 km/h
57 23-07-2022 04:40:00 18.3 C 12.98 g/m*3 18.3 C 0 km/h
58 23-07-2022 04:45:00 18.3 C 12.98 g/m*3 18.3 C 0 km/h
59 23-07-2022 04:50:00 18.3 C 12.98 g/m*3 18.3 C 0 km/h
60 23-07-2022 04:55:00 18.2 C 13.06 g/m*3 18.2 C 0 km/h
61 23-07-2022 05:00:00 18 C 12.9 g/m*3 18 C 0 km/h
62 23-07-2022 05:05:00 17.9 C 12.83 g/m*3 17.9 C 4.8 km/h
63 23-07-2022 05:10:00 17.8 C 12.6 g/m*3 17.8 C 1.6 km/h
64 23-07-2022 05:15:00 17.7 C 12.52 g/m*3 17.7 C 6.4 km/h
65 23-07-2022 05:20:00 17.7 C 12.67 g/m*3 17.7 C 0 km/h
66 23-07-2022 05:25:00 17.6 C 12.6 g/m*3 17.6 C 0 km/h
67 23-07-2022 05:30:00 17.6 C 12.6 g/m*3 17.6 C 3.2 km/h
68 23-07-2022 05:35:00 17.6 C 12.6 g/m*3 17.6 C 0 km/h
69 23-07-2022 05:40:00 17.5 C 12.52 g/m*3 17.5 C 0 km/h
70 23-07-2022 05:45:00 17.4 C 12.45 g/m*3 17.4 C 0 km/h
71 23-07-2022 05:50:00 17.3 C 12.37 g/m*3 17.3 C 0 km/h
72 23-07-2022 05:55:00 17.1 C 12.23 g/m*3 17.1 C 0 km/h
73 23-07-2022 06:00:00 16.9 C 12.23 g/m*3 16.9 C 0 km/h
74 23-07-2022 06:05:00 16.8 C 12.15 g/m*3 16.8 C 1.6 km/h
75 23-07-2022 06:10:00 16.6 C 12.15 g/m*3 16.6 C 1.6 km/h
Sensor: Nr:Datum:Temp:Abs-Feuchte:Windchill:Wind:
Aussen-T/F 76 23-07-2022 06:15:00 16.5 C 12.08 g/m*3 16.5 C 0 km/h
77 23-07-2022 06:20:00 16.4 C 12 g/m*3 16.4 C 1.6 km/h
78 23-07-2022 06:25:00 16.3 C 12.07 g/m*3 16.3 C 0 km/h
79 23-07-2022 06:30:00 16.2 C 12 g/m*3 16.2 C 0 km/h
80 23-07-2022 06:35:00 16.2 C 12.14 g/m*3 16.2 C 0 km/h
81 23-07-2022 06:40:00 16.1 C 12.06 g/m*3 16.1 C 0 km/h
82 23-07-2022 06:45:00 16.1 C 12.06 g/m*3 16.1 C 1.6 km/h
83 23-07-2022 06:50:00 16.1 C 12.06 g/m*3 16.1 C 1.6 km/h
84 23-07-2022 06:55:00 16.1 C 12.06 g/m*3 16.1 C 3.2 km/h
85 23-07-2022 07:00:00 16.1 C 12.2 g/m*3 16.1 C 1.6 km/h
86 23-07-2022 07:05:00 16.1 C 12.2 g/m*3 16.1 C 4.8 km/h
87 23-07-2022 07:10:00 16.2 C 12.27 g/m*3 16.2 C 1.6 km/h
88 23-07-2022 07:15:00 16.3 C 12.35 g/m*3 16.3 C 3.2 km/h
89 23-07-2022 07:20:00 16.4 C 12.42 g/m*3 16.4 C 1.6 km/h
90 23-07-2022 07:25:00 16.5 C 12.5 g/m*3 16.5 C 0 km/h
91 23-07-2022 07:30:00 16.6 C 12.57 g/m*3 16.6 C 0 km/h
92 23-07-2022 07:35:00 16.7 C 12.65 g/m*3 16.7 C 1.6 km/h
93 23-07-2022 07:40:00 16.7 C 12.65 g/m*3 16.7 C 0 km/h
94 23-07-2022 07:45:00 16.8 C 12.72 g/m*3 16.8 C 0 km/h
95 23-07-2022 07:50:00 16.9 C 12.8 g/m*3 16.9 C 0 km/h
96 23-07-2022 07:55:00 17.1 C 12.96 g/m*3 17.1 C 0 km/h
97 23-07-2022 08:00:00 17.2 C 13.03 g/m*3 17.2 C 0 km/h
98 23-07-2022 08:05:00 17.4 C 13.04 g/m*3 17.4 C 1.6 km/h
99 23-07-2022 08:10:00 17.5 C 13.12 g/m*3 17.5 C 0 km/h
100 23-07-2022 08:15:00 17.7 C 13.28 g/m*3 17.7 C 0 km/h
Sensor: Nr:Datum:Temp:Abs-Feuchte:Windchill:Wind:
Aussen-T/F 101 23-07-2022 08:20:00 17.7 C 12.98 g/m*3 17.7 C 0 km/h
102 23-07-2022 08:25:00 17.9 C 12.98 g/m*3 17.9 C 0 km/h
103 23-07-2022 08:30:00 18 C 13.06 g/m*3 18 C 0 km/h
104 23-07-2022 08:35:00 18.1 C 12.98 g/m*3 18.1 C 4.8 km/h
105 23-07-2022 08:40:00 18.2 C 13.06 g/m*3 18.2 C 0 km/h
106 23-07-2022 08:45:00 18.4 C 13.05 g/m*3 18.4 C 3.2 km/h
107 23-07-2022 08:50:00 18.6 C 13.05 g/m*3 18.6 C 1.6 km/h
108 23-07-2022 08:55:00 18.7 C 12.81 g/m*3 18.7 C 4.8 km/h
109 23-07-2022 09:00:00 18.9 C 12.8 g/m*3 18.9 C 6.4 km/h
110 23-07-2022 09:05:00 19.1 C 12.95 g/m*3 19.1 C 4.8 km/h
111 23-07-2022 09:10:00 19.2 C 12.86 g/m*3 19.2 C 4.8 km/h
112 23-07-2022 09:15:00 19.3 C 13.1 g/m*3 19.3 C 6.4 km/h
113 23-07-2022 09:20:00 19.3 C 12.94 g/m*3 19.3 C 8.1 km/h
114 23-07-2022 09:25:00 19.4 C 13.01 g/m*3 19.4 C 8.1 km/h
115 23-07-2022 09:30:00 19.6 C 13 g/m*3 19.6 C 6.4 km/h
116 23-07-2022 09:35:00 19.7 C 13.08 g/m*3 19.7 C 6.4 km/h
117 23-07-2022 09:40:00 19.7 C 12.91 g/m*3 19.7 C 3.2 km/h
118 23-07-2022 09:45:00 19.8 C 12.98 g/m*3 19.8 C 6.4 km/h
119 23-07-2022 09:50:00 19.9 C 12.89 g/m*3 19.9 C 8.1 km/h
120 23-07-2022 09:55:00 20 C 12.96 g/m*3 20 C 4.8 km/h
121 23-07-2022 10:00:00 20.2 C 13.11 g/m*3 20.2 C 3.2 km/h
122 23-07-2022 10:05:00 20.3 C 13.01 g/m*3 20.3 C 6.4 km/h
123 23-07-2022 10:10:00 20.6 C 13.07 g/m*3 20.6 C 12.9 km/h
124 23-07-2022 10:15:00 20.7 C 12.96 g/m*3 20.7 C 4.8 km/h
125 23-07-2022 10:20:00 21 C 13.01 g/m*3 21 C 9.7 km/h
Sensor: Nr:Datum:Temp:Abs-Feuchte:Windchill:Wind:
Aussen-T/F 126 23-07-2022 10:25:00 21.2 C 13.16 g/m*3 21.2 C 4.8 km/h
127 23-07-2022 10:30:00 21.3 C 13.05 g/m*3 21.3 C 6.4 km/h
128 23-07-2022 10:35:00 21.6 C 13.28 g/m*3 21.6 C 3.2 km/h
129 23-07-2022 10:40:00 21.8 C 13.24 g/m*3 21.8 C 8.1 km/h
130 23-07-2022 10:45:00 21.8 C 13.05 g/m*3 21.8 C 8.1 km/h
131 23-07-2022 10:50:00 21.7 C 12.78 g/m*3 21.7 C 8.1 km/h
132 23-07-2022 10:55:00 21.6 C 12.52 g/m*3 21.6 C 9.7 km/h
133 23-07-2022 11:00:00 21.6 C 12.71 g/m*3 21.6 C 3.2 km/h
134 23-07-2022 11:05:00 21.6 C 12.71 g/m*3 21.6 C 12.9 km/h
135 23-07-2022 11:10:00 21.7 C 12.78 g/m*3 21.7 C 8.1 km/h
136 23-07-2022 11:15:00 21.9 C 12.74 g/m*3 21.9 C 6.4 km/h
137 23-07-2022 11:20:00 22.2 C 12.96 g/m*3 22.2 C 4.8 km/h
138 23-07-2022 11:25:00 22.4 C 12.71 g/m*3 22.4 C 8.1 km/h
139 23-07-2022 11:30:00 22.6 C 12.66 g/m*3 22.6 C 4.8 km/h
140 23-07-2022 11:35:00 22.7 C 12.73 g/m*3 22.7 C 0 km/h
141 23-07-2022 11:40:00 22.9 C 12.88 g/m*3 22.9 C 8.1 km/h
142 23-07-2022 11:45:00 23.2 C 12.89 g/m*3 23.2 C 8.1 km/h
143 23-07-2022 11:50:00 23.4 C 12.83 g/m*3 23.4 C 11.3 km/h
144 23-07-2022 11:55:00 23.7 C 12.83 g/m*3 23.7 C 8.1 km/h
145 23-07-2022 12:00:00 23.8 C 12.26 g/m*3 23.8 C 8.1 km/h
146 23-07-2022 12:05:00 23.9 C 12.33 g/m*3 23.9 C 3.2 km/h
147 23-07-2022 12:10:00 24.1 C 12.47 g/m*3 24.1 C 11.3 km/h
148 23-07-2022 12:15:00 24.4 C 12.24 g/m*3 24.4 C 9.7 km/h
149 23-07-2022 12:20:00 24.6 C 12.15 g/m*3 24.6 C 9.7 km/h
150 23-07-2022 12:25:00 24.8 C 12.29 g/m*3 24.8 C 6.4 km/h
Sensor: Nr:Datum:Temp:Abs-Feuchte:Windchill:Wind:
Aussen-T/F 151 23-07-2022 12:30:00 24.8 C 11.84 g/m*3 24.8 C 4.8 km/h
152 23-07-2022 12:35:00 24.8 C 11.84 g/m*3 24.8 C 6.4 km/h
153 23-07-2022 12:40:00 25.1 C 11.81 g/m*3 25.1 C 9.7 km/h
154 23-07-2022 12:45:00 25.3 C 11 g/m*3 25.3 C 11.3 km/h
155 23-07-2022 12:50:00 25.4 C 10.83 g/m*3 25.4 C 12.9 km/h
156 23-07-2022 12:55:00 25.6 C 11.43 g/m*3 25.6 C 8.1 km/h
157 23-07-2022 13:00:00 25.8 C 11.56 g/m*3 25.8 C 9.7 km/h
158 23-07-2022 13:05:00 25.8 C 11.8 g/m*3 25.8 C 12.9 km/h
159 23-07-2022 13:10:00 25.9 C 11.86 g/m*3 25.9 C 6.4 km/h
160 23-07-2022 13:15:00 26.1 C 12.24 g/m*3 26.1 C 8.1 km/h
161 23-07-2022 13:20:00 26.3 C 11.39 g/m*3 26.3 C 6.4 km/h
162 23-07-2022 13:25:00 26.2 C 11.57 g/m*3 26.2 C 8.1 km/h
163 23-07-2022 13:30:00 26 C 12.17 g/m*3 26 C 12.9 km/h
164 23-07-2022 13:35:00 26.1 C 12.24 g/m*3 26.1 C 6.4 km/h
165 23-07-2022 13:40:00 26.3 C 12.13 g/m*3 26.3 C 1.6 km/h
166 23-07-2022 13:45:00 26.5 C 12.27 g/m*3 26.5 C 3.2 km/h
167 23-07-2022 13:50:00 26.8 C 12.22 g/m*3 26.8 C 11.3 km/h
168 23-07-2022 13:55:00 26.8 C 12.22 g/m*3 26.8 C 9.7 km/h
169 23-07-2022 14:00:00 27.1 C 12.68 g/m*3 27.1 C 4.8 km/h
170 23-07-2022 14:05:00 27.2 C 12.23 g/m*3 27.2 C 11.3 km/h
171 23-07-2022 14:10:00 27.3 C 12.04 g/m*3 27.3 C 9.7 km/h
172 23-07-2022 14:15:00 27.5 C 12.43 g/m*3 27.5 C 8.1 km/h
173 23-07-2022 14:20:00 27.7 C 12.3 g/m*3 27.7 C 6.4 km/h
174 23-07-2022 14:25:00 27.7 C 12.3 g/m*3 27.7 C 9.7 km/h
175 23-07-2022 14:30:00 27.7 C 12.04 g/m*3 27.7 C 4.8 km/h
Sensor: Nr:Datum:Temp:Abs-Feuchte:Windchill:Wind:
Aussen-T/F 176 23-07-2022 14:35:00 27.8 C 12.1 g/m*3 27.8 C 6.4 km/h
177 23-07-2022 14:40:00 27.8 C 11.83 g/m*3 27.8 C 11.3 km/h
178 23-07-2022 14:45:00 28.1 C 11.76 g/m*3 28.1 C 8.1 km/h
179 23-07-2022 14:50:00 28.2 C 11.55 g/m*3 28.2 C 9.7 km/h
180 23-07-2022 14:55:00 28.2 C 12.37 g/m*3 28.2 C 6.4 km/h
181 23-07-2022 15:00:00 28.3 C 11.89 g/m*3 28.3 C 14.5 km/h
182 23-07-2022 15:05:00 28.3 C 11.33 g/m*3 28.3 C 12.9 km/h
183 23-07-2022 15:10:00 28.4 C 11.12 g/m*3 28.4 C 6.4 km/h
184 23-07-2022 15:15:00 28.6 C 11.8 g/m*3 28.6 C 4.8 km/h
185 23-07-2022 15:20:00 28.8 C 11.65 g/m*3 28.8 C 8.1 km/h
186 23-07-2022 15:25:00 28.8 C 11.65 g/m*3 28.8 C 16.1 km/h
187 23-07-2022 15:30:00 28.7 C 11.59 g/m*3 28.7 C 16.1 km/h
188 23-07-2022 15:35:00 28.6 C 11.52 g/m*3 28.6 C 9.7 km/h
189 23-07-2022 15:40:00 28.7 C 11.59 g/m*3 28.7 C 9.7 km/h
190 23-07-2022 15:45:00 28.6 C 11.24 g/m*3 28.6 C 8.1 km/h
191 23-07-2022 15:50:00 28.6 C 11.24 g/m*3 28.6 C 8.1 km/h
192 23-07-2022 15:55:00 28.6 C 11.24 g/m*3 28.6 C 9.7 km/h
193 23-07-2022 16:00:00 28.8 C 11.65 g/m*3 28.8 C 8.1 km/h
194 23-07-2022 16:05:00 29.2 C 11.61 g/m*3 29.2 C 9.7 km/h
195 23-07-2022 16:10:00 29.4 C 11.74 g/m*3 29.4 C 11.3 km/h
196 23-07-2022 16:15:00 29.4 C 11.74 g/m*3 29.4 C 11.3 km/h
197 23-07-2022 16:20:00 29.4 C 11.74 g/m*3 29.4 C 8.1 km/h
198 23-07-2022 16:25:00 29.3 C 11.68 g/m*3 29.3 C 9.7 km/h
199 23-07-2022 16:30:00 29.4 C 12.04 g/m*3 29.4 C 4.8 km/h
200 23-07-2022 16:35:00 29.6 C 11.57 g/m*3 29.6 C 9.7 km/h
Sensor: Nr:Datum:Temp:Abs-Feuchte:Windchill:Wind:
Aussen-T/F 201 23-07-2022 16:40:00 29.5 C 11.51 g/m*3 29.5 C 16.1 km/h
202 23-07-2022 16:45:00 29.5 C 11.51 g/m*3 29.5 C 8.1 km/h
203 23-07-2022 16:50:00 29.4 C 11.45 g/m*3 29.4 C 8.1 km/h
204 23-07-2022 16:55:00 29.4 C 11.15 g/m*3 29.4 C 11.3 km/h
205 23-07-2022 17:00:00 29.4 C 11.15 g/m*3 29.4 C 12.9 km/h
206 23-07-2022 17:05:00 29.3 C 11.09 g/m*3 29.3 C 12.9 km/h
207 23-07-2022 17:10:00 29.2 C 11.32 g/m*3 29.2 C 11.3 km/h
208 23-07-2022 17:15:00 29.2 C 11.32 g/m*3 29.2 C 9.7 km/h
209 23-07-2022 17:20:00 29.2 C 11.32 g/m*3 29.2 C 17.7 km/h
210 23-07-2022 17:25:00 29.3 C 11.39 g/m*3 29.3 C 9.7 km/h
211 23-07-2022 17:30:00 29.2 C 11.32 g/m*3 29.2 C 11.3 km/h
212 23-07-2022 17:35:00 29.1 C 11.26 g/m*3 29.1 C 8.1 km/h
213 23-07-2022 17:40:00 29.2 C 11.91 g/m*3 29.2 C 12.9 km/h
214 23-07-2022 17:45:00 29.3 C 11.39 g/m*3 29.3 C 8.1 km/h
215 23-07-2022 17:50:00 29.3 C 11.39 g/m*3 29.3 C 9.7 km/h
216 23-07-2022 17:55:00 29.3 C 11.39 g/m*3 29.3 C 8.1 km/h
217 23-07-2022 18:00:00 29.2 C 11.03 g/m*3 29.2 C 12.9 km/h
218 23-07-2022 18:05:00 28.8 C 11.08 g/m*3 28.8 C 12.9 km/h
219 23-07-2022 18:10:00 28.4 C 11.12 g/m*3 28.4 C 8.1 km/h
220 23-07-2022 18:15:00 28.1 C 11.48 g/m*3 28.1 C 9.7 km/h
221 23-07-2022 18:20:00 27.9 C 11.36 g/m*3 27.9 C 8.1 km/h
222 23-07-2022 18:25:00 27.7 C 11.5 g/m*3 27.7 C 8.1 km/h
223 23-07-2022 18:30:00 27.7 C 11.5 g/m*3 27.7 C 11.3 km/h
224 23-07-2022 18:35:00 27.6 C 11.71 g/m*3 27.6 C 11.3 km/h
225 23-07-2022 18:40:00 27.4 C 11.31 g/m*3 27.4 C 12.9 km/h
Sensor: Nr:Datum:Temp:Abs-Feuchte:Windchill:Wind:
Aussen-T/F 226 23-07-2022 18:45:00 27.3 C 11.25 g/m*3 27.3 C 11.3 km/h
227 23-07-2022 18:50:00 27.1 C 11.13 g/m*3 27.1 C 11.3 km/h
228 23-07-2022 18:55:00 26.9 C 11.52 g/m*3 26.9 C 6.4 km/h
229 23-07-2022 19:00:00 26.8 C 11.45 g/m*3 26.8 C 12.9 km/h
230 23-07-2022 19:05:00 26.6 C 11.58 g/m*3 26.6 C 9.7 km/h
231 23-07-2022 19:10:00 26.5 C 11.51 g/m*3 26.5 C 6.4 km/h
232 23-07-2022 19:15:00 26.4 C 11.45 g/m*3 26.4 C 9.7 km/h
233 23-07-2022 19:20:00 26.4 C 11.45 g/m*3 26.4 C 8.1 km/h
234 23-07-2022 19:25:00 26.4 C 11.7 g/m*3 26.4 C 6.4 km/h
235 23-07-2022 19:30:00 26.4 C 11.95 g/m*3 26.4 C 4.8 km/h
236 23-07-2022 19:35:00 26.3 C 11.88 g/m*3 26.3 C 8.1 km/h
237 23-07-2022 19:40:00 26.2 C 11.82 g/m*3 26.2 C 6.4 km/h
238 23-07-2022 19:45:00 26.1 C 11.75 g/m*3 26.1 C 9.7 km/h
239 23-07-2022 19:50:00 25.9 C 11.62 g/m*3 25.9 C 8.1 km/h
240 23-07-2022 19:55:00 25.9 C 11.86 g/m*3 25.9 C 9.7 km/h
241 23-07-2022 20:00:00 26.1 C 11.75 g/m*3 26.1 C 9.7 km/h
242 23-07-2022 20:05:00 26 C 11.69 g/m*3 26 C 9.7 km/h
243 23-07-2022 20:10:00 25.9 C 11.62 g/m*3 25.9 C 8.1 km/h
244 23-07-2022 20:15:00 25.8 C 11.56 g/m*3 25.8 C 11.3 km/h
245 23-07-2022 20:20:00 25.7 C 11.49 g/m*3 25.7 C 9.7 km/h
246 23-07-2022 20:25:00 25.5 C 11.36 g/m*3 25.5 C 8.1 km/h
247 23-07-2022 20:30:00 25.4 C 11.54 g/m*3 25.4 C 9.7 km/h
248 23-07-2022 20:35:00 25.3 C 11.47 g/m*3 25.3 C 8.1 km/h
249 23-07-2022 20:40:00 25.2 C 11.41 g/m*3 25.2 C 6.4 km/h
250 23-07-2022 20:45:00 25.1 C 11.81 g/m*3 25.1 C 4.8 km/h
Sensor: Nr:Datum:Temp:Abs-Feuchte:Windchill:Wind:
Aussen-T/F 251 23-07-2022 20:50:00 25 C 11.74 g/m*3 25 C 4.8 km/h
252 23-07-2022 20:55:00 24.8 C 11.61 g/m*3 24.8 C 3.2 km/h
253 23-07-2022 21:00:00 24.7 C 12 g/m*3 24.7 C 4.8 km/h
254 23-07-2022 21:05:00 24.6 C 12.6 g/m*3 24.6 C 1.6 km/h
255 23-07-2022 21:10:00 24.3 C 12.39 g/m*3 24.3 C 0 km/h
256 23-07-2022 21:15:00 24 C 12.4 g/m*3 24 C 1.6 km/h
257 23-07-2022 21:20:00 23.7 C 12.62 g/m*3 23.7 C 0 km/h
258 23-07-2022 21:25:00 23.3 C 12.55 g/m*3 23.3 C 0 km/h
259 23-07-2022 21:30:00 22.9 C 12.47 g/m*3 22.9 C 1.6 km/h
260 23-07-2022 21:35:00 22.6 C 12.25 g/m*3 22.6 C 1.6 km/h
261 23-07-2022 21:40:00 22.2 C 11.98 g/m*3 22.2 C 0 km/h
262 23-07-2022 21:45:00 21.9 C 12.16 g/m*3 21.9 C 0 km/h
263 23-07-2022 21:50:00 21.7 C 12.59 g/m*3 21.7 C 0 km/h
264 23-07-2022 21:55:00 21.4 C 12.37 g/m*3 21.4 C 1.6 km/h
265 23-07-2022 22:00:00 21.1 C 12.34 g/m*3 21.1 C 0 km/h
266 23-07-2022 22:05:00 20.8 C 12.13 g/m*3 20.8 C 0 km/h
267 23-07-2022 22:10:00 20.6 C 12.17 g/m*3 20.6 C 0 km/h
268 23-07-2022 22:15:00 20.3 C 12.14 g/m*3 20.3 C 0 km/h
269 23-07-2022 22:20:00 20.1 C 12.17 g/m*3 20.1 C 0 km/h
270 23-07-2022 22:25:00 19.9 C 12.37 g/m*3 19.9 C 0 km/h
271 23-07-2022 22:30:00 19.7 C 12.23 g/m*3 19.7 C 0 km/h
272 23-07-2022 22:35:00 19.4 C 12.18 g/m*3 19.4 C 0 km/h
273 23-07-2022 22:40:00 19.3 C 12.11 g/m*3 19.3 C 0 km/h
274 23-07-2022 22:45:00 19.1 C 12.13 g/m*3 19.1 C 0 km/h
275 23-07-2022 22:50:00 18.9 C 12.15 g/m*3 18.9 C 0 km/h
Sensor: Nr:Datum:Temp:Abs-Feuchte:Windchill:Wind:
Aussen-T/F 276 23-07-2022 22:55:00 18.8 C 12.24 g/m*3 18.8 C 0 km/h
277 23-07-2022 23:00:00 18.6 C 12.1 g/m*3 18.6 C 0 km/h
278 23-07-2022 23:05:00 18.4 C 11.95 g/m*3 18.4 C 0 km/h
279 23-07-2022 23:10:00 18.3 C 11.88 g/m*3 18.3 C 0 km/h
280 23-07-2022 23:15:00 18.3 C 12.04 g/m*3 18.3 C 0 km/h
281 23-07-2022 23:20:00 18.2 C 11.81 g/m*3 18.2 C 0 km/h
282 23-07-2022 23:25:00 18.1 C 12.05 g/m*3 18.1 C 0 km/h
283 23-07-2022 23:30:00 18.1 C 12.05 g/m*3 18.1 C 0 km/h
284 23-07-2022 23:35:00 18 C 11.98 g/m*3 18 C 0 km/h
285 23-07-2022 23:40:00 17.9 C 11.91 g/m*3 17.9 C 0 km/h
286 23-07-2022 23:45:00 17.8 C 11.84 g/m*3 17.8 C 0 km/h
287 23-07-2022 23:50:00 17.8 C 11.84 g/m*3 17.8 C 0 km/h
288 23-07-2022 23:55:00 17.8 C 11.99 g/m*3 17.8 C 0 km/h

Legende:
   Min
   Max


Maximal/Minimal-Werte vom 23.07.2022 - 23.07.2022

Sensor Min Max Avg
Temp
(Aussen-T/F)
16.1 °C
23-07-2022  06:40:00
29.6 °C
23-07-2022  16:35:00
22.2 °C
Abs-Feuchte
(Aussen-T/F)
10.83 g/m*3
23-07-2022  12:50:00
13.77 g/m*3
23-07-2022  00:45:00
12.34 g/m*3
Windchill
(Aussen-T/F)
16.1 C
23-07-2022  06:40:00
29.6 C
23-07-2022  16:35:00
22.12 C

Die Daten stammen von einer Davis Vantage Pro 2 Wetter-Station und werden unter Linux mit der Software wview2wettercgi und aufbereitet. Alle Angaben erfolgen ohne Gewähr für ihre Vollständigkeit oder Richtigkeit.
Kontakt: Rainer Krienke krienke@uni-koblenz.de . Meine Webseiten an der Uni Koblenz oder privat.
Version: $Revision: 0.78 $